createdAt,value
2023-04-11T00:04:14.903Z,39.00
2023-04-11T00:09:19.977Z,39.20
2023-04-11T00:14:21.444Z,42.40
2023-04-11T00:19:23.386Z,32.40
2023-04-11T00:24:26.111Z,42.60
2023-04-11T00:29:27.911Z,43.10
2023-04-11T00:34:29.890Z,41.30
2023-04-11T00:39:33.985Z,34.80
2023-04-11T00:44:36.458Z,23.00
2023-04-11T00:49:39.177Z,20.80
2023-04-11T00:54:41.247Z,15.20
2023-04-11T00:59:43.201Z,21.00
2023-04-11T01:04:45.490Z,15.40
2023-04-11T01:09:47.877Z,17.20
2023-04-11T01:14:49.544Z,17.00
2023-04-11T01:19:51.928Z,19.20
2023-04-11T01:24:53.862Z,15.20
2023-04-11T01:29:55.355Z,17.80
2023-04-11T01:34:58.711Z,17.20
2023-04-11T01:40:01.557Z,14.90
2023-04-11T01:45:06.210Z,15.90
2023-04-11T01:50:08.616Z,16.60
2023-04-11T01:55:10.146Z,15.30
2023-04-11T02:00:13.918Z,15.50
2023-04-11T02:05:15.606Z,19.40
2023-04-11T02:10:17.180Z,16.30
2023-04-11T02:15:19.119Z,16.10
2023-04-11T02:20:21.989Z,17.80
2023-04-11T02:25:23.485Z,16.80
2023-04-11T02:30:24.994Z,17.00
2023-04-11T02:35:26.548Z,18.00
2023-04-11T02:40:28.084Z,16.40
2023-04-11T02:45:29.689Z,16.40
2023-04-11T02:50:31.641Z,21.80
2023-04-11T02:55:33.180Z,20.80
2023-04-11T03:00:34.707Z,19.20
2023-04-11T03:05:36.202Z,18.80
2023-04-11T03:10:37.692Z,29.20
2023-04-11T03:15:39.336Z,27.00
2023-04-11T03:20:40.859Z,24.90
2023-04-11T03:25:44.616Z,20.40
2023-04-11T03:30:46.458Z,27.20
2023-04-11T03:35:47.987Z,24.70
2023-04-11T03:40:49.538Z,24.80
2023-04-11T03:45:51.916Z,22.80
2023-04-11T03:50:53.473Z,22.00
2023-04-11T03:55:55.569Z,27.20
2023-04-11T04:00:57.131Z,25.70
2023-04-11T04:05:58.634Z,25.20
2023-04-11T04:11:00.180Z,26.10
2023-04-11T04:16:03.435Z,22.40
2023-04-11T04:21:07.577Z,23.80
2023-04-11T04:26:09.230Z,23.10
2023-04-11T04:31:10.712Z,20.70
2023-04-11T04:36:12.641Z,28.00
2023-04-11T04:41:22.178Z,26.40
2023-04-11T04:46:23.986Z,27.30
2023-04-11T04:51:27.425Z,19.00
2023-04-11T04:56:30.507Z,21.80
2023-04-11T05:01:32.973Z,26.20
2023-04-11T05:06:34.795Z,17.80
2023-04-11T05:11:36.314Z,23.00
2023-04-11T05:16:41.875Z,21.50
2023-04-11T05:21:43.398Z,18.20
2023-04-11T05:26:45.773Z,17.30
2023-04-11T05:31:47.243Z,17.70
2023-04-11T05:36:48.930Z,19.90
2023-04-11T05:41:50.887Z,22.30
2023-04-11T05:46:52.501Z,23.90
2023-04-11T05:51:53.976Z,22.50
2023-04-11T05:56:56.503Z,18.30
2023-04-11T06:01:58.952Z,17.80
2023-04-11T06:07:02.604Z,20.30
2023-04-11T06:12:04.175Z,19.80
2023-04-11T06:17:06.055Z,21.40
2023-04-11T06:22:07.623Z,28.10
2023-04-11T06:27:12.141Z,24.30
2023-04-11T06:32:13.982Z,32.60
2023-04-11T06:37:15.769Z,27.70
2023-04-11T06:42:17.332Z,25.90
2023-04-11T06:47:19.100Z,28.50
2023-04-11T06:52:20.840Z,34.50
2023-04-11T06:57:22.442Z,20.10
2023-04-11T07:02:25.793Z,21.30
2023-04-11T07:07:27.752Z,18.90
2023-04-11T07:12:29.323Z,18.00
2023-04-11T07:17:31.341Z,14.30
2023-04-11T07:22:33.004Z,17.40
2023-04-11T07:27:36.333Z,19.80
2023-04-11T07:32:37.875Z,12.60
2023-04-11T07:37:39.496Z,18.30
2023-04-11T07:42:42.188Z,14.10
2023-04-11T07:47:43.738Z,14.80
2023-04-11T07:52:45.409Z,11.80
2023-04-11T07:57:46.956Z,12.00
2023-04-11T08:02:49.426Z,10.70
2023-04-11T08:07:51.190Z,11.80
2023-04-11T08:12:52.789Z,11.10
2023-04-11T08:17:57.636Z,8.80
2023-04-11T08:22:59.516Z,10.20
2023-04-11T08:28:01.526Z,13.20
2023-04-11T08:33:03.360Z,10.70
2023-04-11T08:38:04.956Z,8.90
2023-04-11T08:43:12.393Z,10.10
2023-04-11T08:48:14.041Z,8.90
2023-04-11T08:53:18.917Z,6.30
2023-04-11T08:58:20.791Z,5.50
2023-04-11T09:03:22.776Z,5.80
2023-04-11T09:08:39.336Z,7.10
2023-04-11T09:13:40.904Z,7.60
2023-04-11T09:18:44.933Z,6.60
2023-04-11T09:23:46.525Z,8.20
2023-04-11T09:28:53.911Z,9.50
2023-04-11T09:33:58.757Z,10.70
2023-04-11T09:39:05.017Z,13.90
2023-04-11T09:44:06.528Z,11.80
2023-04-11T09:54:15.810Z,9.70
2023-04-11T09:59:20.219Z,12.40
2023-04-11T10:04:22.842Z,7.50
2023-04-11T10:09:24.589Z,6.70
2023-04-11T10:14:38.423Z,6.50
2023-04-11T10:19:40.622Z,6.10
2023-04-11T10:25:20.923Z,6.00
2023-04-11T10:30:41.058Z,8.00
2023-04-11T10:36:05.644Z,7.00
2023-04-11T10:41:22.983Z,7.00
2023-04-11T10:46:26.605Z,9.90
2023-04-11T10:51:30.522Z,7.40
2023-04-11T10:56:45.455Z,8.80
2023-04-11T11:01:54.920Z,6.90
2023-04-11T11:06:58.098Z,8.00
2023-04-11T11:17:15.656Z,7.80
2023-04-11T11:22:26.069Z,8.40
2023-04-11T11:27:28.582Z,8.50
2023-04-11T11:32:32.816Z,7.40
2023-04-11T11:37:34.729Z,7.30
2023-04-11T11:42:37.028Z,10.10
2023-04-11T11:47:43.225Z,12.80
2023-04-11T11:52:44.769Z,9.70
2023-04-11T11:57:47.519Z,12.90
2023-04-11T12:02:52.548Z,8.40
2023-04-11T12:07:55.031Z,11.50
2023-04-11T12:12:56.577Z,9.80
2023-04-11T12:17:58.118Z,9.40
2023-04-11T12:22:59.820Z,8.60
2023-04-11T12:28:01.408Z,8.60
2023-04-11T12:33:02.950Z,12.10
2023-04-11T12:38:04.617Z,10.30
2023-04-11T12:43:06.156Z,11.30
2023-04-11T12:48:08.148Z,12.30
2023-04-11T12:53:09.717Z,9.60
2023-04-11T12:58:11.538Z,11.70
2023-04-11T13:03:13.357Z,12.10
2023-04-11T13:08:15.569Z,8.60
2023-04-11T13:13:18.287Z,7.90
2023-04-11T13:18:20.717Z,8.40
2023-04-11T13:23:22.203Z,7.90
2023-04-11T13:28:23.742Z,13.00
2023-04-11T13:33:26.291Z,6.50
2023-04-11T13:38:28.264Z,7.60
2023-04-11T13:43:29.932Z,7.30
2023-04-11T13:48:31.423Z,7.70
2023-04-11T13:53:32.921Z,7.30
2023-04-11T13:58:35.144Z,7.70
2023-04-11T14:03:37.842Z,10.80
2023-04-11T14:13:41.204Z,7.20
2023-04-11T14:18:42.857Z,7.10
2023-04-11T14:23:44.580Z,7.30
2023-04-11T14:28:46.412Z,7.80
2023-04-11T14:33:47.901Z,7.80
2023-04-11T14:38:49.482Z,8.60
2023-04-11T14:43:51.313Z,6.80
2023-04-11T14:48:52.837Z,6.90
2023-04-11T14:53:59.845Z,6.60
2023-04-11T14:59:01.621Z,7.10
2023-04-11T15:04:03.225Z,12.50
2023-04-11T15:09:04.934Z,7.90
2023-04-11T15:14:06.446Z,7.70
2023-04-11T15:19:09.570Z,8.20
2023-04-11T15:24:11.124Z,11.60
2023-04-11T15:29:17.451Z,9.40
2023-04-11T15:34:19.020Z,8.50
2023-04-11T15:39:20.515Z,7.80
2023-04-11T15:44:22.009Z,8.10
2023-04-11T15:49:23.619Z,11.00
2023-04-11T15:54:25.282Z,8.00
2023-04-11T15:59:27.277Z,8.60
2023-04-11T16:04:29.819Z,10.60
2023-04-11T16:09:31.828Z,9.60
2023-04-11T16:14:33.318Z,8.10
2023-04-11T16:19:34.864Z,10.50
2023-04-11T16:24:36.782Z,10.60
2023-04-11T16:29:38.301Z,11.20
2023-04-11T16:34:40.021Z,11.80
2023-04-11T16:39:41.542Z,14.90
2023-04-11T16:44:43.055Z,15.40
2023-04-11T16:49:46.909Z,17.40
2023-04-11T16:54:48.888Z,11.90
2023-04-11T16:59:51.616Z,95.20
2023-04-11T17:04:53.224Z,61.50
2023-04-11T17:09:54.760Z,26.00
2023-04-11T17:14:56.441Z,16.90
2023-04-11T17:19:57.911Z,19.70
2023-04-11T17:24:59.977Z,29.50
2023-04-11T17:30:02.245Z,28.70
2023-04-11T17:35:05.868Z,26.40
2023-04-11T17:40:12.664Z,28.70
2023-04-11T17:45:18.253Z,41.40
2023-04-11T17:50:20.217Z,51.00
2023-04-11T17:55:21.885Z,23.70
2023-04-11T18:00:24.321Z,34.50
2023-04-11T18:05:29.170Z,48.90
2023-04-11T18:10:31.380Z,33.70
2023-04-11T18:15:33.495Z,19.00
2023-04-11T18:20:35.300Z,14.80
2023-04-11T18:25:37.075Z,16.10
2023-04-11T18:30:39.845Z,12.70
2023-04-11T18:35:41.725Z,14.80
2023-04-11T18:40:43.441Z,12.00
2023-04-11T18:45:45.273Z,13.70
2023-04-11T18:50:57.870Z,16.70
2023-04-11T18:56:03.084Z,17.30
2023-04-11T19:01:14.836Z,22.50
2023-04-11T19:06:17.605Z,16.50
2023-04-11T19:11:19.549Z,21.10
2023-04-11T19:16:21.382Z,19.80
2023-04-11T19:21:23.072Z,21.60
2023-04-11T19:26:28.399Z,21.80
2023-04-11T19:31:32.418Z,24.90
2023-04-11T19:36:35.158Z,23.90
2023-04-11T19:41:36.764Z,23.80
2023-04-11T19:46:39.142Z,23.40
2023-04-11T19:51:40.692Z,24.20
2023-04-11T19:56:45.491Z,26.10
2023-04-11T20:01:47.178Z,24.00
2023-04-11T20:06:50.759Z,22.20
2023-04-11T20:11:52.419Z,21.80
2023-04-11T20:16:53.973Z,22.90
2023-04-11T20:21:56.037Z,22.90
2023-04-11T20:26:57.521Z,21.10
2023-04-11T20:31:59.008Z,23.30
2023-04-11T20:37:04.664Z,24.30
2023-04-11T20:42:10.633Z,25.90
2023-04-11T20:47:12.157Z,26.50
2023-04-11T20:52:13.719Z,22.70
2023-04-11T20:57:15.578Z,25.70
2023-04-11T21:02:17.439Z,18.30
2023-04-11T21:07:22.432Z,22.60
2023-04-11T21:12:23.948Z,20.60
2023-04-11T21:17:26.184Z,17.60
2023-04-11T21:22:27.786Z,19.50
2023-04-11T21:27:29.354Z,17.20
2023-04-11T21:32:31.088Z,24.50
2023-04-11T21:37:33.068Z,16.10
2023-04-11T21:42:34.590Z,21.10
2023-04-11T21:47:36.307Z,23.60
2023-04-11T21:52:38.009Z,22.00
2023-04-11T21:57:39.549Z,27.40
2023-04-11T22:02:41.576Z,27.70
2023-04-11T22:07:49.208Z,27.70
2023-04-11T22:12:53.749Z,30.10
2023-04-11T22:17:56.603Z,25.20
2023-04-11T22:22:58.386Z,25.70
2023-04-11T22:28:00.005Z,28.40
2023-04-11T22:33:02.053Z,25.50
2023-04-11T22:38:03.922Z,26.20
2023-04-11T22:43:05.712Z,26.20
2023-04-11T22:48:07.320Z,30.20
2023-04-11T22:53:09.490Z,27.20
2023-04-11T22:58:11.151Z,24.20
2023-04-11T23:03:14.304Z,24.50
2023-04-11T23:08:15.932Z,25.00
2023-04-11T23:13:17.484Z,22.00
2023-04-11T23:18:19.519Z,21.00
2023-04-11T23:23:21.102Z,21.10
2023-04-11T23:28:24.240Z,21.40
2023-04-11T23:33:26.825Z,20.90
2023-04-11T23:38:28.979Z,21.50
2023-04-11T23:43:30.655Z,24.70
2023-04-11T23:48:32.164Z,23.10
2023-04-11T23:53:34.178Z,26.90
2023-04-11T23:58:36.072Z,24.20
